Time;durP1;ratioP1;P1;durP2;ratioP2;P2;SDS_P1;SDS_P2;PMS_P1;PMS_P2;Temp;Humidity;BMP_temperature;BMP_pressure;BME280_temperature;BME280_humidity;BME280_pressure;Samples;Min_cycle;Max_cycle;Signal;HPM_P1;HPM_P2
2022/04/26 03:37:48;;;;;;;2.03;1.10;;;;;;;;;;5016949;28;20420;-64
2022/04/26 03:40:18;;;;;;;3.65;1.42;;;;;;;;;;5050164;28;20452;-62
2022/04/26 03:42:49;;;;;;;4.63;1.60;;;;;;;;;;5013522;28;20585;-64
2022/04/26 03:45:20;;;;;;;2.10;1.30;;;;;;;;;;5049840;28;20049;-64
2022/04/26 03:47:50;;;;;;;3.05;1.35;;;;;;;;;;5049888;28;20056;-65
2022/04/26 03:50:21;;;;;;;4.47;1.33;;;;;;;;;;5000848;28;20493;-64
2022/04/26 03:52:53;;;;;;;5.25;1.52;;;;;;;;;;5050039;28;20123;-65
2022/04/26 03:55:24;;;;;;;4.43;1.70;;;;;;;;;;5000669;28;20053;-64
2022/04/26 03:57:57;;;;;;;3.05;1.77;;;;;;;;;;5049826;28;20060;-64
2022/04/26 04:00:27;;;;;;;;;;;;;;;;;;5050448;28;20053;-64
2022/04/26 04:02:58;;;;;;;3.17;1.27;;;;;;;;;;5049335;28;19927;-65
2022/04/26 04:05:29;;;;;;;3.42;1.55;;;;;;;;;;5033066;28;20049;-64
2022/04/26 04:08:00;;;;;;;4.47;1.40;;;;;;;;;;5049632;28;20408;-65
2022/04/26 04:10:30;;;;;;;3.85;1.25;;;;;;;;;;5049829;28;20508;-65
2022/04/26 04:13:01;;;;;;;4.93;1.80;;;;;;;;;;5019343;28;20068;-64
2022/04/26 04:15:32;;;;;;;5.82;1.42;;;;;;;;;;5019863;28;20052;-64
2022/04/26 04:19:17;;;;;;;2.90;1.40;;;;;;;;;;5020702;28;20052;-65
2022/04/26 04:20:54;;;;;;;3.85;1.15;;;;;;;;;;5069686;28;20044;-65
2022/04/26 04:23:24;;;;;;;3.33;1.40;;;;;;;;;;5064157;28;20064;-64
2022/04/26 04:25:55;;;;;;;3.53;1.48;;;;;;;;;;5071237;28;20045;-64
2022/04/26 04:28:26;;;;;;;4.30;1.60;;;;;;;;;;5071714;28;20396;-64
2022/04/26 04:30:56;;;;;;;7.07;1.45;;;;;;;;;;5071850;28;20052;-64
2022/04/26 04:33:27;;;;;;;2.03;1.15;;;;;;;;;;5071789;28;20451;-64
2022/04/26 04:35:58;;;;;;;2.55;1.25;;;;;;;;;;5069706;28;20055;-64
2022/04/26 04:38:28;;;;;;;5.35;1.50;;;;;;;;;;5053405;28;20500;-64
2022/04/26 04:40:59;;;;;;;3.42;1.30;;;;;;;;;;5071731;28;20041;-64
2022/04/26 04:43:30;;;;;;;3.63;1.40;;;;;;;;;;5071694;28;20041;-64
2022/04/26 04:46:02;;;;;;;3.40;1.10;;;;;;;;;;5071752;28;20060;-64
2022/04/26 04:48:32;;;;;;;5.65;1.80;;;;;;;;;;5071627;28;20036;-64
2022/04/26 04:51:03;;;;;;;5.65;1.52;;;;;;;;;;5000458;28;20056;-64
2022/04/26 04:53:39;;;;;;;3.33;1.60;;;;;;;;;;5049190;28;20061;-63
2022/04/26 04:56:11;;;;;;;2.97;1.23;;;;;;;;;;5033067;28;20064;-63
2022/04/26 04:58:41;;;;;;;3.15;1.50;;;;;;;;;;5029256;28;20064;-64
2022/04/26 05:01:12;;;;;;;6.57;1.70;;;;;;;;;;5029019;28;20083;-64
2022/04/26 05:03:43;;;;;;;3.63;1.60;;;;;;;;;;5009229;28;20061;-64
2022/04/26 05:06:15;;;;;;;5.43;1.40;;;;;;;;;;4960976;28;20065;-64
2022/04/26 05:08:46;;;;;;;2.80;1.42;;;;;;;;;;4961871;28;20061;-64
2022/04/26 05:11:17;;;;;;;5.82;1.88;;;;;;;;;;5009504;28;20550;-64
2022/04/26 05:13:48;;;;;;;5.07;1.38;;;;;;;;;;5009562;28;20057;-64
2022/04/26 05:16:18;;;;;;;3.40;1.65;;;;;;;;;;5009491;28;20065;-64
2022/04/26 05:18:49;;;;;;;2.50;1.48;;;;;;;;;;5009436;28;20056;-64
2022/04/26 05:21:19;;;;;;;4.72;1.70;;;;;;;;;;5009328;28;20046;-64
2022/04/26 05:26:39;;;;;;;6.60;1.48;;;;;;;;;;5009406;28;20073;-64
2022/04/26 05:29:09;;;;;;;3.58;1.65;;;;;;;;;;5009129;28;20061;-64
2022/04/26 05:31:40;;;;;;;4.28;1.50;;;;;;;;;;4953937;28;20518;-64
2022/04/26 05:34:11;;;;;;;4.80;1.52;;;;;;;;;;4970400;28;20055;-64
2022/04/26 05:36:41;;;;;;;5.30;1.98;;;;;;;;;;4938231;29;20047;-64
2022/04/26 05:39:12;;;;;;;4.38;2.10;;;;;;;;;;4936564;29;20082;-64
2022/04/26 05:41:45;;;;;;;6.18;1.70;;;;;;;;;;4922559;29;20057;-64
2022/04/26 05:44:16;;;;;;;3.45;1.48;;;;;;;;;;4970131;28;20193;-64
2022/04/26 05:46:47;;;;;;;7.53;1.85;;;;;;;;;;4935120;29;20647;-64
2022/04/26 05:49:17;;;;;;;5.78;1.75;;;;;;;;;;4934979;29;20554;-64
2022/04/26 05:51:49;;;;;;;4.15;1.85;;;;;;;;;;4918905;29;20790;-64
2022/04/26 05:54:20;;;;;;;5.53;1.77;;;;;;;;;;4919291;29;20060;-64
2022/04/26 05:56:53;;;;;;;3.22;1.60;;;;;;;;;;4973570;28;20066;-64
2022/04/26 05:59:25;;;;;;;4.80;1.83;;;;;;;;;;4973490;28;20051;-64
2022/04/26 06:01:55;;;;;;;3.90;1.65;;;;;;;;;;4973091;28;20090;-64
2022/04/26 06:04:26;;;;;;;5.47;1.88;;;;;;;;;;4973441;28;20066;-64
2022/04/26 06:06:58;;;;;;;3.72;1.60;;;;;;;;;;4973375;28;20063;-64
2022/04/26 06:09:28;;;;;;;7.82;2.17;;;;;;;;;;4995215;28;20046;-64
2022/04/26 06:11:59;;;;;;;3.22;1.80;;;;;;;;;;5012186;28;20069;-64
2022/04/26 06:14:30;;;;;;;4.38;1.90;;;;;;;;;;5034132;28;20045;-64
2022/04/26 06:17:01;;;;;;;4.35;1.85;;;;;;;;;;5051869;28;20057;-64
2022/04/26 06:19:31;;;;;;;4.70;1.42;;;;;;;;;;5051872;28;20060;-64
2022/04/26 06:22:02;;;;;;;3.95;2.13;;;;;;;;;;5051720;28;20053;-64
2022/04/26 06:24:33;;;;;;;4.68;1.70;;;;;;;;;;5066793;28;20060;-64
2022/04/26 06:27:04;;;;;;;4.47;1.92;;;;;;;;;;5071281;28;20049;-64
2022/04/26 06:29:35;;;;;;;4.82;2.20;;;;;;;;;;5033944;28;20412;-64
2022/04/26 06:32:06;;;;;;;4.05;1.88;;;;;;;;;;5031217;28;20049;-64
2022/04/26 06:34:37;;;;;;;4.13;1.70;;;;;;;;;;5019970;28;20061;-64
2022/04/26 06:37:07;;;;;;;3.35;1.63;;;;;;;;;;5011649;28;20054;-64
2022/04/26 06:39:38;;;;;;;6.53;1.90;;;;;;;;;;5011521;28;20050;-64
2022/04/26 06:42:09;;;;;;;3.15;1.70;;;;;;;;;;4991750;28;20065;-64
2022/04/26 06:44:42;;;;;;;6.13;2.20;;;;;;;;;;4991607;28;20077;-64
2022/04/26 06:47:13;;;;;;;4.45;1.60;;;;;;;;;;4991836;28;20054;-64
2022/04/26 06:49:44;;;;;;;4.15;1.60;;;;;;;;;;4991257;28;20050;-64
2022/04/26 06:52:14;;;;;;;5.28;2.10;;;;;;;;;;4981344;28;20058;-64
2022/04/26 06:54:45;;;;;;;6.72;1.95;;;;;;;;;;4972261;28;20058;-64
2022/04/26 06:57:17;;;;;;;3.72;1.90;;;;;;;;;;4972016;28;20055;-64
2022/04/26 06:59:49;;;;;;;3.17;1.70;;;;;;;;;;4939932;28;20058;-64
2022/04/26 07:02:20;;;;;;;4.65;1.50;;;;;;;;;;4974157;28;20054;-64
2022/04/26 07:04:51;;;;;;;4.95;1.95;;;;;;;;;;4969751;28;20154;-64
2022/04/26 07:07:23;;;;;;;5.13;2.03;;;;;;;;;;4942237;29;20067;-64
2022/04/26 07:09:54;;;;;;;5.35;1.85;;;;;;;;;;4971726;28;20050;-64
2022/04/26 07:12:24;;;;;;;7.60;2.08;;;;;;;;;;4980326;28;20446;-64
2022/04/26 07:14:55;;;;;;;5.95;1.90;;;;;;;;;;4971364;28;20051;-64
2022/04/26 07:17:26;;;;;;;4.03;1.98;;;;;;;;;;4952227;28;20059;-64
2022/04/26 07:19:59;;;;;;;5.97;1.85;;;;;;;;;;4947827;28;20067;-64
2022/04/26 07:22:32;;;;;;;6.53;2.30;;;;;;;;;;4939736;28;20058;-64
2022/04/26 07:25:03;;;;;;;4.97;1.80;;;;;;;;;;4971714;28;20054;-64
2022/04/26 07:27:35;;;;;;;6.90;2.08;;;;;;;;;;4967957;28;20054;-64
2022/04/26 07:30:06;;;;;;;4.72;2.20;;;;;;;;;;4952291;29;20051;-64
2022/04/26 07:35:25;;;;;;;4.15;1.88;;;;;;;;;;4951835;29;20051;-64
2022/04/26 07:38:08;;;;;;;6.60;1.90;;;;;;;;;;4952325;29;20613;-64
2022/04/26 07:40:38;;;;;;;4.95;1.80;;;;;;;;;;4936730;29;20055;-64
2022/04/26 07:43:09;;;;;;;4.50;2.20;;;;;;;;;;4937624;29;20056;-64
2022/04/26 07:45:42;;;;;;;6.97;2.08;;;;;;;;;;4948444;28;20066;-65
2022/04/26 07:48:16;;;;;;;8.48;2.50;;;;;;;;;;4951801;28;20047;-64
2022/04/26 07:50:48;;;;;;;7.53;2.25;;;;;;;;;;4951847;28;20086;-64
2022/04/26 07:53:19;;;;;;;6.72;2.15;;;;;;;;;;4983327;28;20062;-64
2022/04/26 07:55:50;;;;;;;4.30;2.10;;;;;;;;;;5006357;28;20046;-64
2022/04/26 07:58:21;;;;;;;7.10;2.70;;;;;;;;;;4971113;28;20058;-64
2022/04/26 08:00:51;;;;;;;5.45;2.38;;;;;;;;;;4970236;28;20058;-64
2022/04/26 08:03:23;;;;;;;4.88;2.53;;;;;;;;;;4971188;28;20070;-64
2022/04/26 08:05:54;;;;;;;6.82;2.38;;;;;;;;;;4955961;28;20070;-64
2022/04/26 08:08:24;;;;;;;6.80;2.55;;;;;;;;;;4951975;29;20047;-64
2022/04/26 08:11:00;;;;;;;5.97;2.80;;;;;;;;;;4951764;29;20055;-64
2022/04/26 08:13:30;;;;;;;5.43;2.75;;;;;;;;;;4997796;28;20054;-64
2022/04/26 08:16:01;;;;;;;11.13;2.95;;;;;;;;;;4977482;28;20061;-64
2022/04/26 08:18:32;;;;;;;6.10;2.58;;;;;;;;;;4961471;28;20046;-64
2022/04/26 08:21:03;;;;;;;5.68;2.60;;;;;;;;;;5009801;28;20502;-64
2022/04/26 08:29:18;;;;;;;6.03;2.05;;;;;;;;;;5029203;28;20054;-64
2022/04/26 08:31:48;;;;;;;7.05;2.50;;;;;;;;;;5013627;28;20053;-65
2022/04/26 08:34:19;;;;;;;5.82;2.35;;;;;;;;;;5029455;28;20517;-64
2022/04/26 08:36:50;;;;;;;8.13;2.30;;;;;;;;;;5046527;28;20061;-64
2022/04/26 08:39:23;;;;;;;5.50;2.60;;;;;;;;;;5033111;28;20053;-65
2022/04/26 08:42:01;;;;;;;7.72;2.72;;;;;;;;;;5049421;28;20521;-64
2022/04/26 08:44:32;;;;;;;5.90;2.50;;;;;;;;;;5049229;28;20053;-65
2022/04/26 08:52:50;;;;;;;4.68;2.45;;;;;;;;;;5049363;28;20045;-65
2022/04/26 08:55:21;;;;;;;5.32;2.78;;;;;;;;;;4993450;28;20053;-64
2022/04/26 08:57:52;;;;;;;5.28;2.83;;;;;;;;;;5009582;28;20074;-65
2022/04/26 09:00:24;;;;;;;5.60;2.80;;;;;;;;;;4993686;28;20195;-65
2022/04/26 09:03:03;;;;;;;6.28;2.42;;;;;;;;;;5009038;28;20038;-64
2022/04/26 09:05:35;;;;;;;4.78;2.20;;;;;;;;;;5009929;28;20058;-65
2022/04/26 09:08:22;;;;;;;5.80;2.50;;;;;;;;;;5009633;28;20057;-64
2022/04/26 09:10:53;;;;;;;6.40;2.42;;;;;;;;;;4993082;28;20054;-65
2022/04/26 09:13:24;;;;;;;4.20;2.25;;;;;;;;;;5011630;28;20065;-64
2022/04/26 09:15:57;;;;;;;5.93;2.38;;;;;;;;;;5009400;28;20050;-64
2022/04/26 09:18:30;;;;;;;4.40;2.40;;;;;;;;;;4993923;28;20062;-65
2022/04/26 09:21:07;;;;;;;6.35;2.25;;;;;;;;;;4954233;29;20058;-65
2022/04/26 09:23:39;;;;;;;3.72;1.98;;;;;;;;;;4973887;28;20061;-64
2022/04/26 09:26:12;;;;;;;6.18;2.20;;;;;;;;;;4954197;29;20059;-65
2022/04/26 09:28:45;;;;;;;4.60;2.00;;;;;;;;;;4954333;28;20055;-65
2022/04/26 09:31:28;;;;;;;5.18;2.20;;;;;;;;;;4954379;28;20059;-65
2022/04/26 09:34:06;;;;;;;7.10;2.30;;;;;;;;;;4954383;28;20055;-65
2022/04/26 09:36:45;;;;;;;4.32;1.83;;;;;;;;;;4939007;28;20059;-65
2022/04/26 09:39:20;;;;;;;5.63;2.35;;;;;;;;;;4954276;28;20078;-65
2022/04/26 09:42:13;;;;;;;4.30;2.33;;;;;;;;;;4941422;29;20055;-65
2022/04/26 09:44:43;;;;;;;6.68;2.35;;;;;;;;;;4954009;28;20067;-64
2022/04/26 09:47:13;;;;;;;7.30;2.35;;;;;;;;;;4938177;29;20189;-64
2022/04/26 09:49:44;;;;;;;3.90;2.10;;;;;;;;;;4938007;28;20051;-64
2022/04/26 09:52:20;;;;;;;4.22;2.17;;;;;;;;;;4938117;29;20054;-64
2022/04/26 09:54:50;;;;;;;3.67;2.10;;;;;;;;;;4973409;28;20050;-63
2022/04/26 09:57:22;;;;;;;4.75;2.20;;;;;;;;;;4973289;28;20066;-64
2022/04/26 10:00:10;;;;;;;7.13;2.22;;;;;;;;;;4992407;28;20059;-65
2022/04/26 10:02:55;;;;;;;5.63;2.33;;;;;;;;;;5012391;28;20049;-64
2022/04/26 10:05:31;;;;;;;5.75;2.63;;;;;;;;;;5018196;28;20057;-64
2022/04/26 10:08:04;;;;;;;8.30;2.53;;;;;;;;;;5031870;28;20069;-63
2022/04/26 10:10:39;;;;;;;5.57;2.60;;;;;;;;;;5032073;28;20504;-63
2022/04/26 10:13:32;;;;;;;4.75;2.10;;;;;;;;;;5031637;28;20050;-65
2022/04/26 10:16:08;;;;;;;4.00;1.92;;;;;;;;;;5031906;28;20548;-65
2022/04/26 10:18:44;;;;;;;4.78;2.17;;;;;;;;;;4975794;28;20066;-64
2022/04/26 10:21:23;;;;;;;5.88;2.85;;;;;;;;;;4992813;28;20422;-64
2022/04/26 10:24:01;;;;;;;4.90;2.35;;;;;;;;;;4991558;28;20069;-64
2022/04/26 10:26:33;;;;;;;3.95;2.17;;;;;;;;;;5024856;28;20058;-64
2022/04/26 10:29:10;;;;;;;6.60;2.92;;;;;;;;;;4976345;28;20438;-65
2022/04/26 10:31:56;;;;;;;5.70;2.47;;;;;;;;;;4991990;28;20430;-64
2022/04/26 10:34:34;;;;;;;4.75;1.95;;;;;;;;;;4975834;28;20057;-64
2022/04/26 10:37:09;;;;;;;7.22;2.50;;;;;;;;;;4985190;28;20050;-64
2022/04/26 10:39:41;;;;;;;6.05;2.33;;;;;;;;;;4981621;28;20060;-64
2022/04/26 10:42:12;;;;;;;;;;;;;;;;;;5011840;28;20050;-64
2022/04/26 10:44:47;;;;;;;4.30;2.42;;;;;;;;;;4991856;28;19944;-64
2022/04/26 10:47:22;;;;;;;4.68;2.40;;;;;;;;;;4991920;28;20097;-65
2022/04/26 10:49:54;;;;;;;4.85;2.22;;;;;;;;;;4991983;28;20057;-64
2022/04/26 10:52:35;;;;;;;5.18;2.13;;;;;;;;;;4960692;28;20054;-64
2022/04/26 10:55:08;;;;;;;4.82;2.42;;;;;;;;;;4991847;28;20046;-64
2022/04/26 10:57:41;;;;;;;4.55;2.50;;;;;;;;;;5030850;28;20512;-65
2022/04/26 11:00:20;;;;;;;5.55;2.13;;;;;;;;;;4995030;28;20057;-64
2022/04/26 11:02:51;;;;;;;4.13;1.90;;;;;;;;;;4995448;28;20054;-65
2022/04/26 11:05:27;;;;;;;5.28;1.92;;;;;;;;;;5011261;28;20061;-64
2022/04/26 11:07:57;;;;;;;3.45;1.95;;;;;;;;;;4971999;28;20066;-64
2022/04/26 11:11:00;;;;;;;5.88;2.22;;;;;;;;;;4955413;28;20065;-65
2022/04/26 11:13:33;;;;;;;4.95;2.10;;;;;;;;;;4933208;29;20496;-65
2022/04/26 11:16:09;;;;;;;4.13;1.90;;;;;;;;;;4933343;29;20063;-64
2022/04/26 11:18:42;;;;;;;5.35;1.88;;;;;;;;;;4933250;29;20055;-64
2022/04/26 11:21:13;;;;;;;4.82;2.03;;;;;;;;;;4934460;28;20051;-64
2022/04/26 11:29:43;;;;;;;3.72;1.85;;;;;;;;;;4951916;29;20051;-64
2022/04/26 11:32:54;;;;;;;5.90;2.03;;;;;;;;;;4931007;29;20435;-65
2022/04/26 11:35:25;;;;;;;5.00;1.98;;;;;;;;;;4933327;29;20055;-64
2022/04/26 11:37:59;;;;;;;4.15;1.90;;;;;;;;;;4901204;29;20064;-65
2022/04/26 11:40:30;;;;;;;4.47;2.03;;;;;;;;;;4933175;29;20064;-65
2022/04/26 11:43:15;;;;;;;3.40;1.85;;;;;;;;;;4932872;29;20067;-65
2022/04/26 11:45:47;;;;;;;;;;;;;;;;;;4974571;28;20050;-65
2022/04/26 11:48:20;;;;;;;5.03;2.05;;;;;;;;;;4990843;28;19929;-65
2022/04/26 11:50:52;;;;;;;3.83;1.83;;;;;;;;;;4970946;28;20054;-65
2022/04/26 11:53:25;;;;;;;10.00;3.17;;;;;;;;;;4971277;28;20059;-64
2022/04/26 11:56:01;;;;;;;5.80;2.90;;;;;;;;;;4990052;28;20046;-65
2022/04/26 11:58:34;;;;;;;5.45;2.08;;;;;;;;;;4974583;28;20099;-65
2022/04/26 12:01:16;;;;;;;5.72;1.80;;;;;;;;;;4970565;28;20062;-65
2022/04/26 12:03:52;;;;;;;5.70;2.22;;;;;;;;;;4971142;28;20059;-65
2022/04/26 12:06:31;;;;;;;4.50;2.05;;;;;;;;;;4975598;28;20427;-65
2022/04/26 12:09:04;;;;;;;6.45;2.30;;;;;;;;;;4977480;28;20057;-65
2022/04/26 12:11:36;;;;;;;5.22;1.70;;;;;;;;;;5009706;28;20054;-64
2022/04/26 12:14:08;;;;;;;5.10;1.90;;;;;;;;;;4993120;28;20053;-64
2022/04/26 12:16:47;;;;;;;52.58;19.33;;;;;;;;;;5009799;28;20057;-64
2022/04/26 12:19:18;;;;;;;5.10;2.85;;;;;;;;;;4945666;28;20049;-64
2022/04/26 12:21:57;;;;;;;32.03;12.45;;;;;;;;;;5009839;28;20516;-64
2022/04/26 12:24:45;;;;;;;22.30;8.57;;;;;;;;;;4991827;28;20054;-64
2022/04/26 12:27:19;;;;;;;6.07;3.15;;;;;;;;;;4990219;28;20134;-65
2022/04/26 12:29:51;;;;;;;8.20;3.33;;;;;;;;;;4977947;28;20183;-65
2022/04/26 12:32:30;;;;;;;10.18;4.10;;;;;;;;;;5009826;28;20124;-65
2022/04/26 12:35:01;;;;;;;31.63;12.18;;;;;;;;;;5013243;28;20060;-65
2022/04/26 12:37:34;;;;;;;6.10;2.90;;;;;;;;;;4989793;28;20050;-65
2022/04/26 12:40:08;;;;;;;12.45;3.20;;;;;;;;;;5009892;28;20162;-65
2022/04/26 12:42:40;;;;;;;4.65;2.53;;;;;;;;;;5009650;28;20050;-63
2022/04/26 12:45:23;;;;;;;6.80;2.45;;;;;;;;;;4979138;28;20049;-65
2022/04/26 12:50:56;;;;;;;4.10;2.22;;;;;;;;;;5033610;28;20061;-64
2022/04/26 12:53:34;;;;;;;6.85;2.42;;;;;;;;;;5033346;28;20057;-65
2022/04/26 12:56:10;;;;;;;9.45;2.20;;;;;;;;;;5013046;28;20056;-65
2022/04/26 12:58:43;;;;;;;6.35;2.50;;;;;;;;;;5013191;28;20073;-65
2022/04/26 13:01:16;;;;;;;4.88;2.13;;;;;;;;;;5013212;28;20054;-64
2022/04/26 13:03:47;;;;;;;4.30;1.80;;;;;;;;;;4949878;28;20050;-64
2022/04/26 13:06:19;;;;;;;5.07;2.22;;;;;;;;;;5013521;28;20046;-64
2022/04/26 13:09:09;;;;;;;5.05;2.10;;;;;;;;;;5013078;28;20050;-65
2022/04/26 13:11:43;;;;;;;5.13;2.00;;;;;;;;;;5013199;28;20101;-65
2022/04/26 13:14:13;;;;;;;5.32;2.40;;;;;;;;;;5015375;28;20152;-65
2022/04/26 13:17:05;;;;;;;5.07;2.42;;;;;;;;;;5012668;28;20054;-65
2022/04/26 13:19:36;;;;;;;6.97;3.63;;;;;;;;;;4964422;28;20449;-65
2022/04/26 13:22:07;;;;;;;8.55;3.60;;;;;;;;;;5021109;28;20068;-65
2022/04/26 13:24:38;;;;;;;6.30;2.63;;;;;;;;;;4967591;28;20056;-65
2022/04/26 13:27:08;;;;;;;4.78;2.55;;;;;;;;;;5032809;28;20069;-65
2022/04/26 13:29:39;;;;;;;6.40;2.35;;;;;;;;;;5008931;28;20050;-65
2022/04/26 13:32:10;;;;;;;6.90;2.42;;;;;;;;;;5009342;28;20505;-65
2022/04/26 13:34:41;;;;;;;5.28;2.30;;;;;;;;;;5012483;28;20494;-66
2022/04/26 13:37:12;;;;;;;5.22;2.00;;;;;;;;;;5012577;28;20062;-66
2022/04/26 13:39:45;;;;;;;6.03;2.00;;;;;;;;;;5006970;28;20062;-64
2022/04/26 13:42:16;;;;;;;5.60;1.90;;;;;;;;;;4992859;28;20513;-64
2022/04/26 13:44:47;;;;;;;4.03;1.80;;;;;;;;;;4993078;28;20490;-64
2022/04/26 13:47:17;;;;;;;4.60;2.00;;;;;;;;;;4994606;28;20065;-66
2022/04/26 13:49:48;;;;;;;4.03;1.90;;;;;;;;;;4957755;28;20058;-64
2022/04/26 13:52:20;;;;;;;3.42;1.35;;;;;;;;;;4969865;28;20055;-64
2022/04/26 13:54:51;;;;;;;5.75;2.20;;;;;;;;;;4978564;28;20058;-66
2022/04/26 13:57:22;;;;;;;6.32;2.00;;;;;;;;;;4960436;28;20054;-63
2022/04/26 13:59:53;;;;;;;4.00;1.73;;;;;;;;;;4991072;28;20066;-63
2022/04/26 14:02:24;;;;;;;6.25;1.60;;;;;;;;;;4992614;28;20065;-63
2022/04/26 14:04:54;;;;;;;4.90;1.58;;;;;;;;;;4988827;28;20053;-63
2022/04/26 14:07:24;;;;;;;5.05;1.70;;;;;;;;;;5016623;28;20089;-63
2022/04/26 14:09:55;;;;;;;5.30;1.50;;;;;;;;;;5008282;28;20625;-63
2022/04/26 14:12:26;;;;;;;4.15;1.58;;;;;;;;;;5059800;28;20041;-63
2022/04/26 14:23:22;;;;;;;4.68;1.17;;;;;;;;;;5048399;28;20057;-64
2022/04/26 14:25:56;;;;;;;5.60;1.80;;;;;;;;;;5045932;28;20224;-64
2022/04/26 14:28:26;;;;;;;3.65;1.20;;;;;;;;;;5080874;28;20059;-64
2022/04/26 14:30:57;;;;;;;4.47;1.33;;;;;;;;;;5061570;28;20044;-63
2022/04/26 14:33:28;;;;;;;5.28;1.50;;;;;;;;;;5057209;28;20083;-63
2022/04/26 14:35:58;;;;;;;3.70;1.20;;;;;;;;;;5035694;28;20053;-62
2022/04/26 14:38:29;;;;;;;3.15;1.48;;;;;;;;;;4982425;28;20057;-63
2022/04/26 14:41:01;;;;;;;3.17;1.40;;;;;;;;;;5031916;28;20397;-63
2022/04/26 14:43:32;;;;;;;4.13;1.10;;;;;;;;;;5015499;28;20060;-63
2022/04/26 14:46:02;;;;;;;2.72;1.20;;;;;;;;;;5041162;28;20045;-63
2022/04/26 14:48:33;;;;;;;5.30;1.33;;;;;;;;;;4986267;28;20049;-62
2022/04/26 14:51:04;;;;;;;2.03;1.08;;;;;;;;;;5051176;28;20052;-62
2022/04/26 14:53:35;;;;;;;4.30;1.35;;;;;;;;;;4994862;28;20191;-63
2022/04/26 14:56:09;;;;;;;15.55;1.77;;;;;;;;;;5011021;28;20069;-62
2022/04/26 14:59:02;;;;;;;50.38;2.97;;;;;;;;;;4999381;28;20069;-62
2022/04/26 15:01:44;;;;;;;17.90;2.03;;;;;;;;;;4991418;28;20061;-63
2022/04/26 15:04:17;;;;;;;10.10;1.60;;;;;;;;;;4975230;28;20065;-63
2022/04/26 15:06:49;;;;;;;9.20;1.58;;;;;;;;;;4959343;28;20057;-62
2022/04/26 15:17:48;;;;;;;7.53;1.10;;;;;;;;;;5010993;28;20053;-63
2022/04/26 15:20:19;;;;;;;4.72;1.40;;;;;;;;;;4978249;28;20065;-63
2022/04/26 15:22:49;;;;;;;9.23;1.33;;;;;;;;;;4994974;28;20069;-63
2022/04/26 15:25:20;;;;;;;5.05;1.30;;;;;;;;;;4994501;28;20057;-63
2022/04/26 15:27:51;;;;;;;8.68;1.20;;;;;;;;;;5010990;28;20057;-63
2022/04/26 15:30:21;;;;;;;6.18;1.10;;;;;;;;;;5017286;28;20053;-64
2022/04/26 15:32:52;;;;;;;6.30;1.17;;;;;;;;;;5050093;28;20052;-62
2022/04/26 15:35:23;;;;;;;8.15;1.30;;;;;;;;;;5050333;28;20064;-63
2022/04/26 15:37:54;;;;;;;2.72;1.27;;;;;;;;;;5050265;28;20055;-63
2022/04/26 15:40:24;;;;;;;4.15;1.10;;;;;;;;;;5034136;28;20053;-64
2022/04/26 15:42:54;;;;;;;4.53;1.33;;;;;;;;;;5034068;28;20056;-64
2022/04/26 15:45:25;;;;;;;3.13;1.15;;;;;;;;;;4977405;28;20052;-63
2022/04/26 15:47:56;;;;;;;4.68;1.88;;;;;;;;;;4961695;28;20057;-63
2022/04/26 15:50:28;;;;;;;4.95;1.38;;;;;;;;;;5010380;28;20061;-64
2022/04/26 15:52:59;;;;;;;3.45;1.45;;;;;;;;;;5015908;28;20042;-62
2022/04/26 15:55:36;;;;;;;7.57;1.30;;;;;;;;;;4997132;28;20057;-64
2022/04/26 15:58:08;;;;;;;6.13;1.38;;;;;;;;;;5029615;28;20436;-62
2022/04/26 16:00:38;;;;;;;;;;;;;;;;;;5030222;28;20057;-64
2022/04/26 16:03:08;;;;;;;2.35;0.90;;;;;;;;;;5029829;28;19924;-62
2022/04/26 16:05:42;;;;;;;3.03;1.70;;;;;;;;;;5013345;28;20064;-64
2022/04/26 16:08:13;;;;;;;2.88;0.93;;;;;;;;;;5030141;28;20064;-62
2022/04/26 16:22:02;;;;;;;5.40;1.50;;;;;;;;;;5009130;28;20057;-62
2022/04/26 16:24:38;;;;;;;4.28;1.33;;;;;;;;;;4962632;28;20073;-63
2022/04/26 16:27:09;;;;;;;2.40;1.45;;;;;;;;;;5009889;28;20045;-64
2022/04/26 16:29:41;;;;;;;4.55;1.40;;;;;;;;;;4995058;28;20433;-64
2022/04/26 16:32:11;;;;;;;4.45;1.55;;;;;;;;;;5029458;28;20045;-64
2022/04/26 16:34:42;;;;;;;6.05;1.58;;;;;;;;;;5029564;28;20420;-64
2022/04/26 16:37:13;;;;;;;3.08;1.40;;;;;;;;;;5009645;28;20077;-63
2022/04/26 16:39:44;;;;;;;2.45;1.20;;;;;;;;;;5009815;28;20046;-63
2022/04/26 16:42:15;;;;;;;4.95;1.42;;;;;;;;;;4989917;28;20069;-64
2022/04/26 16:44:46;;;;;;;2.50;1.23;;;;;;;;;;4989951;28;20046;-63
2022/04/26 16:47:17;;;;;;;4.72;1.60;;;;;;;;;;4989781;28;20062;-64
2022/04/26 16:49:48;;;;;;;3.10;1.52;;;;;;;;;;4975357;28;20498;-63
2022/04/26 16:52:19;;;;;;;3.35;1.40;;;;;;;;;;4989960;28;20069;-62
2022/04/26 16:54:52;;;;;;;3.72;1.30;;;;;;;;;;4990147;28;20063;-63
2022/04/26 16:57:26;;;;;;;2.15;0.95;;;;;;;;;;4989889;28;20055;-62
2022/04/26 16:59:58;;;;;;;3.55;1.27;;;;;;;;;;4971670;28;20459;-64
2022/04/26 17:02:30;;;;;;;2.00;1.23;;;;;;;;;;4957348;28;20066;-63
2022/04/26 17:05:00;;;;;;;;;;;;;;;;;;4958390;28;20058;-63
2022/04/26 17:07:31;;;;;;;3.72;1.40;;;;;;;;;;4996252;28;19921;-64
2022/04/26 17:10:02;;;;;;;4.90;1.70;;;;;;;;;;5029419;28;20061;-64
2022/04/26 17:12:33;;;;;;;2.75;1.33;;;;;;;;;;5029171;28;20057;-64
2022/04/26 17:15:06;;;;;;;5.72;1.10;;;;;;;;;;5029252;28;20050;-62
2022/04/26 17:17:38;;;;;;;4.30;1.45;;;;;;;;;;5029194;28;20109;-63
2022/04/26 17:20:10;;;;;;;4.70;1.20;;;;;;;;;;5025169;28;20068;-63
2022/04/26 17:22:44;;;;;;;5.68;1.50;;;;;;;;;;5049216;28;20064;-63
2022/04/26 17:25:15;;;;;;;3.75;1.20;;;;;;;;;;5049142;28;20068;-63
2022/04/26 17:28:07;;;;;;;;;;;;;;;;;;5035914;28;20052;-64
2022/04/26 17:30:38;;;;;;;4.00;1.73;;;;;;;;;;5028892;28;19920;-63
2022/04/26 17:33:09;;;;;;;3.40;1.45;;;;;;;;;;5052910;28;20520;-61
2022/04/26 17:35:41;;;;;;;3.78;1.70;;;;;;;;;;5032245;28;20068;-64
2022/04/26 17:38:12;;;;;;;4.03;1.30;;;;;;;;;;5032738;28;20534;-63
2022/04/26 17:40:42;;;;;;;3.00;1.30;;;;;;;;;;5032718;28;20065;-61
2022/04/26 17:43:13;;;;;;;4.57;1.33;;;;;;;;;;4999544;28;20540;-62
2022/04/26 17:45:46;;;;;;;3.22;1.23;;;;;;;;;;5015646;28;20045;-62
2022/04/26 17:48:18;;;;;;;2.70;1.30;;;;;;;;;;5032313;28;20596;-63
2022/04/26 17:50:49;;;;;;;4.55;1.42;;;;;;;;;;5032518;28;20049;-61
2022/04/26 17:58:58;;;;;;;4.70;1.42;;;;;;;;;;4983497;28;20061;-63
2022/04/26 18:01:29;;;;;;;1.67;0.90;;;;;;;;;;5031996;28;20058;-62
2022/04/26 18:04:00;;;;;;;3.00;1.38;;;;;;;;;;5027851;28;20057;-63
2022/04/26 18:06:31;;;;;;;2.72;1.55;;;;;;;;;;5012533;28;20053;-62
2022/04/26 18:09:01;;;;;;;2.03;1.20;;;;;;;;;;4995924;28;20053;-63
2022/04/26 18:11:32;;;;;;;2.80;1.17;;;;;;;;;;5012068;28;20053;-62
2022/04/26 18:14:03;;;;;;;2.45;1.20;;;;;;;;;;5044259;28;20049;-63
2022/04/26 18:16:34;;;;;;;3.42;2.80;;;;;;;;;;5019577;28;20053;-61
2022/04/26 18:19:07;;;;;;;3.15;1.15;;;;;;;;;;5011991;28;20057;-62
2022/04/26 18:21:37;;;;;;;4.15;1.15;;;;;;;;;;5011707;28;20080;-63
2022/04/26 18:24:08;;;;;;;2.30;1.10;;;;;;;;;;4976080;28;20053;-63
2022/04/26 18:26:40;;;;;;;2.47;1.38;;;;;;;;;;4953458;29;20047;-63
2022/04/26 18:29:19;;;;;;;2.75;1.20;;;;;;;;;;4953806;29;20063;-62
2022/04/26 18:31:50;;;;;;;2.70;1.25;;;;;;;;;;4953382;29;20056;-62
2022/04/26 18:34:21;;;;;;;2.97;1.20;;;;;;;;;;4921621;29;20047;-63
2022/04/26 18:36:52;;;;;;;2.22;0.90;;;;;;;;;;4953385;29;20496;-63
2022/04/26 18:39:23;;;;;;;2.67;1.10;;;;;;;;;;4953386;29;20063;-61
2022/04/26 18:41:56;;;;;;;4.75;1.30;;;;;;;;;;4964685;28;20462;-63
2022/04/26 18:44:27;;;;;;;2.25;1.17;;;;;;;;;;4972417;28;20063;-63
2022/04/26 18:46:59;;;;;;;3.10;1.30;;;;;;;;;;4952736;29;20048;-63
2022/04/26 18:49:35;;;;;;;4.03;0.95;;;;;;;;;;4953083;29;20412;-61
2022/04/26 18:52:06;;;;;;;4.22;1.10;;;;;;;;;;4953018;29;20056;-63
2022/04/26 18:54:36;;;;;;;3.10;1.20;;;;;;;;;;4953118;29;20077;-63
2022/04/26 18:57:25;;;;;;;1.77;0.93;;;;;;;;;;4968241;28;20059;-62
2022/04/26 18:59:56;;;;;;;3.20;2.03;;;;;;;;;;4924352;28;20070;-63
2022/04/26 19:02:27;;;;;;;2.92;1.10;;;;;;;;;;5002415;28;20054;-62
2022/04/26 19:04:58;;;;;;;3.10;1.27;;;;;;;;;;4978821;28;20070;-63
2022/04/26 19:07:28;;;;;;;4.63;1.23;;;;;;;;;;5011082;28;20465;-62
2022/04/26 19:12:49;;;;;;;3.97;1.20;;;;;;;;;;5011080;28;20050;-62
2022/04/26 19:15:44;;;;;;;3.90;1.50;;;;;;;;;;4971679;28;20054;-62
2022/04/26 19:18:16;;;;;;;2.75;1.02;;;;;;;;;;4972019;28;20066;-62
2022/04/26 19:20:47;;;;;;;2.63;1.42;;;;;;;;;;4971678;28;20055;-60
2022/04/26 19:23:17;;;;;;;4.45;1.83;;;;;;;;;;4971844;28;20051;-63
2022/04/26 19:25:48;;;;;;;1.95;1.10;;;;;;;;;;4994737;28;20065;-62
2022/04/26 19:28:19;;;;;;;3.75;1.13;;;;;;;;;;5033312;28;20045;-62
2022/04/26 19:30:50;;;;;;;2.97;1.08;;;;;;;;;;5001326;28;20056;-62
2022/04/26 19:33:22;;;;;;;3.10;1.50;;;;;;;;;;5001326;28;20048;-62
2022/04/26 19:35:54;;;;;;;4.35;1.17;;;;;;;;;;5050420;28;20056;-62
2022/04/26 19:38:25;;;;;;;4.15;1.20;;;;;;;;;;5001186;28;20049;-62
2022/04/26 19:40:56;;;;;;;6.72;1.60;;;;;;;;;;5017683;28;20068;-62
2022/04/26 19:43:27;;;;;;;2.63;1.10;;;;;;;;;;5050587;28;20049;-62
2022/04/26 19:45:57;;;;;;;3.25;1.20;;;;;;;;;;5050152;28;20060;-62
2022/04/26 19:48:28;;;;;;;5.22;1.00;;;;;;;;;;5050362;28;20053;-62
2022/04/26 19:53:47;;;;;;;2.60;1.10;;;;;;;;;;5068869;28;20060;-62
2022/04/26 19:56:18;;;;;;;4.15;1.20;;;;;;;;;;5053259;28;20059;-62
2022/04/26 19:58:49;;;;;;;2.17;1.17;;;;;;;;;;5071990;28;20048;-62